Time;durP1;ratioP1;P1;durP2;ratioP2;P2;SDS_P1;SDS_P2;PMS_P1;PMS_P2;Temp;Humidity;BMP_temperature;BMP_pressure;BME280_temperature;BME280_humidity;BME280_pressure;Samples;Min_cycle;Max_cycle;Signal;HPM_P1;HPM_P2
2024/01/09 00:02:05;;;;;;;42.42;17.73;;;;;;;;;;5030722;28;20033;-73
2024/01/09 00:04:31;;;;;;;39.70;16.35;;;;;;;;;;5028021;28;20044;-72
2024/01/09 00:06:58;;;;;;;39.05;17.10;;;;;;;;;;5031190;28;20040;-74
2024/01/09 00:09:25;;;;;;;43.33;17.88;;;;;;;;;;5029613;28;20080;-68
2024/01/09 00:11:51;;;;;;;37.20;16.30;;;;;;;;;;5029211;28;20037;-69
2024/01/09 00:14:17;;;;;;;29.33;12.35;;;;;;;;;;5031273;28;20034;-62
2024/01/09 00:16:43;;;;;;;25.60;11.98;;;;;;;;;;5031729;28;20037;-66
2024/01/09 00:19:09;;;;;;;21.40;10.20;;;;;;;;;;5030060;28;20123;-62
2024/01/09 00:21:35;;;;;;;23.15;10.80;;;;;;;;;;5028344;28;20045;-73
2024/01/09 00:24:04;;;;;;;22.88;10.75;;;;;;;;;;5031378;28;20049;-69
2024/01/09 00:26:30;;;;;;;23.48;11.45;;;;;;;;;;5030869;28;20596;-64
2024/01/09 00:28:56;;;;;;;24.60;10.85;;;;;;;;;;5033020;28;20021;-62
2024/01/09 00:31:22;;;;;;;26.40;11.15;;;;;;;;;;5033369;28;20072;-66
2024/01/09 00:33:50;;;;;;;24.38;10.95;;;;;;;;;;5033775;28;20037;-73
2024/01/09 00:36:16;;;;;;;24.13;11.55;;;;;;;;;;5015786;28;20034;-72
2024/01/09 00:38:42;;;;;;;23.65;10.50;;;;;;;;;;5031380;28;20087;-64
2024/01/09 00:41:08;;;;;;;25.58;11.98;;;;;;;;;;5029095;28;20029;-63
2024/01/09 00:43:37;;;;;;;25.25;11.93;;;;;;;;;;5030553;28;20041;-63
2024/01/09 00:46:03;;;;;;;24.77;11.27;;;;;;;;;;5031462;28;20034;-73
2024/01/09 00:48:32;;;;;;;23.80;11.10;;;;;;;;;;5034439;28;20053;-62
2024/01/09 00:50:58;;;;;;;26.20;12.10;;;;;;;;;;5037272;28;20541;-66
2024/01/09 00:53:24;;;;;;;25.75;11.88;;;;;;;;;;5054444;28;20396;-71
2024/01/09 00:55:53;;;;;;;24.17;11.52;;;;;;;;;;5036389;28;20038;-62
2024/01/09 00:58:19;;;;;;;26.02;11.45;;;;;;;;;;5029153;28;21307;-62
2024/01/09 01:00:48;;;;;;;24.73;11.85;;;;;;;;;;5032385;28;20040;-70
2024/01/09 01:03:14;;;;;;;25.08;11.43;;;;;;;;;;5033731;28;20109;-67
2024/01/09 01:05:41;;;;;;;24.63;11.45;;;;;;;;;;5036819;28;20124;-63
2024/01/09 01:08:07;;;;;;;24.15;11.02;;;;;;;;;;5021099;28;20326;-70
2024/01/09 01:10:34;;;;;;;28.02;12.20;;;;;;;;;;5038353;28;20022;-71
2024/01/09 01:13:00;;;;;;;26.33;11.73;;;;;;;;;;5037781;28;20029;-72
2024/01/09 01:15:26;;;;;;;24.05;11.10;;;;;;;;;;5030720;28;20420;-61
2024/01/09 01:17:52;;;;;;;24.80;11.40;;;;;;;;;;5030686;28;20029;-65
2024/01/09 01:20:18;;;;;;;26.70;11.98;;;;;;;;;;5030835;28;20038;-62
2024/01/09 01:22:47;;;;;;;25.33;11.60;;;;;;;;;;5034317;28;20483;-73
2024/01/09 01:25:14;;;;;;;25.85;12.60;;;;;;;;;;5037187;28;20048;-64
2024/01/09 01:27:41;;;;;;;25.95;12.77;;;;;;;;;;5038042;28;20041;-63
2024/01/09 01:30:08;;;;;;;27.77;13.20;;;;;;;;;;5037507;28;20537;-66
2024/01/09 01:32:35;;;;;;;31.23;13.52;;;;;;;;;;5037499;28;20494;-64
2024/01/09 01:35:02;;;;;;;26.20;12.27;;;;;;;;;;5037697;28;20542;-72
2024/01/09 01:37:29;;;;;;;24.67;12.30;;;;;;;;;;5020443;28;20476;-68
2024/01/09 01:39:56;;;;;;;25.77;12.77;;;;;;;;;;5037446;28;20533;-63
2024/01/09 01:42:22;;;;;;;28.45;13.20;;;;;;;;;;5037211;28;20108;-65
2024/01/09 01:44:48;;;;;;;26.67;12.48;;;;;;;;;;5035391;28;20033;-67
2024/01/09 01:47:15;;;;;;;29.08;14.00;;;;;;;;;;5032537;28;20028;-63
2024/01/09 01:49:41;;;;;;;31.60;14.32;;;;;;;;;;5029707;28;20026;-64
2024/01/09 01:52:08;;;;;;;31.02;13.57;;;;;;;;;;5032808;28;20143;-66
2024/01/09 01:54:38;;;;;;;29.52;12.93;;;;;;;;;;5033014;28;20341;-69
2024/01/09 01:57:05;;;;;;;31.52;13.82;;;;;;;;;;5029818;28;20423;-72
2024/01/09 01:59:33;;;;;;;30.70;13.30;;;;;;;;;;5030591;28;20048;-69
2024/01/09 02:02:00;;;;;;;29.67;13.90;;;;;;;;;;5032260;28;20028;-69
2024/01/09 02:04:26;;;;;;;28.70;14.00;;;;;;;;;;5033149;28;20068;-61
2024/01/09 02:06:52;;;;;;;27.33;12.38;;;38.70;2201.60;;;;;;5033338;28;20056;-71
2024/01/09 02:09:19;;;;;;;26.45;12.02;;;38.80;2201.60;;;;;;5019479;28;20518;-68
2024/01/09 02:11:48;;;;;;;26.55;12.48;;;38.90;2201.60;;;;;;5036790;28;20483;-68
2024/01/09 02:14:14;;;;;;;28.13;13.52;;;38.90;2201.60;;;;;;5031011;28;20032;-69
2024/01/09 02:16:40;;;;;;;28.35;13.18;;;39.00;2201.60;;;;;;5026978;28;20080;-63
2024/01/09 02:19:06;;;;;;;26.67;12.40;;;39.10;2201.60;;;;;;5025636;28;20076;-60
2024/01/09 02:21:33;;;;;;;27.70;12.32;;;39.10;2201.60;;;;;;5032995;28;20037;-65
2024/01/09 02:23:59;;;;;;;27.67;12.55;;;39.10;2201.60;;;;;;5032219;28;20030;-69
2024/01/09 02:26:31;;;;;;;29.80;12.90;;;39.00;2201.60;;;;;;5030510;28;20038;-64
2024/01/09 02:29:04;;;;;;;27.80;13.43;;;39.10;2201.60;;;;;;5029528;28;20076;-73
2024/01/09 02:31:30;;;;;;;27.75;12.95;;;39.10;2201.60;;;;;;5030557;28;20073;-61
2024/01/09 02:33:57;;;;;;;28.60;12.75;;;39.10;2201.60;;;;;;5031275;28;20033;-62
2024/01/09 02:36:23;;;;;;;29.25;12.88;;;39.20;2201.60;;;;;;5026749;28;20037;-65
2024/01/09 02:38:49;;;;;;;27.05;12.15;;;39.20;2201.60;;;;;;5030548;28;20049;-70
2024/01/09 02:41:15;;;;;;;30.63;12.70;;;39.20;2201.60;;;;;;5034462;28;20041;-73
2024/01/09 02:43:41;;;;;;;28.30;12.57;;;39.30;2201.60;;;;;;5036203;28;20499;-69
2024/01/09 02:46:07;;;;;;;27.45;12.88;;;64.00;2201.60;;;;;;5036364;28;20026;-70
2024/01/09 02:48:34;;;;;;;28.25;12.63;;;39.30;2201.60;;;;;;5029341;28;20041;-63
2024/01/09 02:51:00;;;;;;;31.92;14.02;;;39.30;2201.60;;;;;;5033465;28;20033;-65
2024/01/09 02:53:26;;;;;;;27.85;12.80;;;39.30;2201.60;;;;;;5032283;28;20021;-70
2024/01/09 02:55:51;;;;;;;26.88;12.52;;;64.00;2201.60;;;;;;5029577;28;20989;-62
2024/01/09 02:58:17;;;;;;;29.67;13.05;;;64.00;2201.60;;;;;;5030441;28;20025;-63
2024/01/09 03:00:46;;;;;;;28.98;12.55;;;39.30;2201.60;;;;;;5026159;28;20443;-63
2024/01/09 03:03:11;;;;;;;27.38;13.02;;;64.00;2201.60;;;;;;5031713;28;20096;-71
2024/01/09 03:05:37;;;;;;;29.05;12.60;;;64.10;2201.60;;;;;;5031700;28;20981;-64
2024/01/09 03:08:03;;;;;;;28.90;12.55;;;64.10;2201.60;;;;;;5030919;28;20075;-65
2024/01/09 03:10:29;;;;;;;28.58;12.40;;;64.00;2201.60;;;;;;5031080;28;20053;-63
2024/01/09 03:12:54;;;;;;;29.92;12.85;;;64.10;2201.60;;;;;;5027790;28;20051;-70
2024/01/09 03:15:23;;;;;;;31.33;15.18;;;64.10;2201.60;;;;;;5028414;28;20025;-64
2024/01/09 03:17:49;;;;;;;26.38;12.98;;;64.10;2201.60;;;;;;5030933;28;20032;-64
2024/01/09 03:20:15;;;;;;;30.45;14.05;;;64.10;2201.60;;;;;;5029818;28;20030;-62
2024/01/09 03:22:40;;;;;;;30.08;13.20;;;64.10;2201.60;;;;;;5035996;28;20030;-65
2024/01/09 03:25:07;;;;;;;29.35;13.15;;;64.00;2201.60;;;;;;5031816;28;20468;-62
2024/01/09 03:27:33;;;;;;;27.83;12.82;;;64.00;2201.60;;;;;;5032254;28;20087;-62
2024/01/09 03:29:59;;;;;;;26.40;12.55;;;64.00;2201.60;;;;;;5028056;28;20468;-64
2024/01/09 03:32:24;;;;;;;29.90;13.43;;;64.00;2201.60;;;;;;5029535;28;20040;-63
2024/01/09 03:34:50;;;;;;;30.20;14.13;;;64.00;2201.60;;;;;;5026168;28;20087;-65
2024/01/09 03:37:16;;;;;;;28.25;14.85;;;39.30;2201.60;;;;;;5027096;28;20028;-62
2024/01/09 03:39:45;;;;;;;32.45;15.15;;;39.30;2201.60;;;;;;5011976;28;20610;-66
2024/01/09 03:42:11;;;;;;;35.05;15.07;;;39.30;2201.60;;;;;;5029560;28;20038;-62
2024/01/09 03:44:37;;;;;;;28.70;12.88;;;39.30;2201.60;;;;;;5029992;28;20056;-64
2024/01/09 03:47:03;;;;;;;29.48;13.07;;;39.30;2201.60;;;;;;5029975;28;20852;-68
2024/01/09 03:49:28;;;;;;;28.00;13.27;;;64.00;2201.60;;;;;;5028896;28;20623;-62
2024/01/09 03:51:58;;;;;;;26.58;12.43;;;64.00;2201.60;;;;;;5029776;28;20022;-61
2024/01/09 03:54:24;;;;;;;28.85;12.77;;;64.00;2201.60;;;;;;5026588;28;20068;-61
2024/01/09 03:56:50;;;;;;;30.05;14.27;;;64.10;2201.60;;;;;;5025898;28;20492;-64
2024/01/09 03:59:15;;;;;;;30.63;14.40;;;64.00;2201.60;;;;;;5029180;28;20038;-61
2024/01/09 04:01:41;;;;;;;28.98;13.50;;;64.00;2201.60;;;;;;5029264;28;20558;-61
2024/01/09 04:04:07;;;;;;;27.60;13.20;;;64.00;2201.60;;;;;;5028817;28;20030;-61
2024/01/09 04:06:34;;;;;;;28.15;12.70;;;64.00;2201.60;;;;;;5029973;28;20033;-64
2024/01/09 04:08:59;;;;;;;25.90;11.85;;;64.00;2201.60;;;;;;5026860;28;20032;-62
2024/01/09 04:11:26;;;;;;;27.77;12.95;;;64.10;2201.60;;;;;;5028999;28;20025;-64
2024/01/09 04:13:51;;;;;;;24.13;11.45;;;64.10;2201.60;;;;;;5026903;28;20037;-64
2024/01/09 04:16:18;;;;;;;27.23;12.07;;;64.10;2201.60;;;;;;5026879;28;20036;-62
2024/01/09 04:18:44;;;;;;;25.63;12.35;;;64.20;2201.60;;;;;;5029387;28;20136;-61
2024/01/09 04:21:12;;;;;;;28.70;13.05;;;64.20;2201.60;;;;;;5030200;28;20128;-63
2024/01/09 04:23:38;;;;;;;30.33;14.80;;;64.20;2201.60;;;;;;5029456;28;20041;-61
2024/01/09 04:26:04;;;;;;;27.48;13.55;;;64.20;2201.60;;;;;;5029221;28;20455;-64
2024/01/09 04:28:32;;;;;;;24.73;12.30;;;64.10;2201.60;;;;;;5030898;28;20064;-63
2024/01/09 04:30:58;;;;;;;31.30;13.32;;;64.10;2201.60;;;;;;5033674;28;20041;-65
2024/01/09 04:33:24;;;;;;;26.27;13.38;;;64.10;2201.60;;;;;;5029425;28;20033;-64
2024/01/09 04:35:50;;;;;;;26.20;11.25;;;64.10;2201.60;;;;;;5031307;28;20075;-63
2024/01/09 04:38:16;;;;;;;27.50;11.95;;;64.20;2201.60;;;;;;5033256;28;20119;-62
2024/01/09 04:40:41;;;;;;;28.23;12.68;;;64.20;2201.60;;;;;;5033986;28;20881;-64
2024/01/09 04:43:07;;;;;;;26.83;11.68;;;64.20;2201.60;;;;;;5034001;28;20061;-65
2024/01/09 04:45:39;;;;;;;27.77;12.82;;;64.10;2201.60;;;;;;5035663;28;20369;-64
2024/01/09 04:48:06;;;;;;;28.63;13.00;;;64.20;2201.60;;;;;;5032919;28;20040;-62
2024/01/09 04:50:31;;;;;;;27.35;12.50;;;64.20;2201.60;;;;;;5032779;28;20025;-63
2024/01/09 04:52:57;;;;;;;27.92;13.32;;;64.30;2201.60;;;;;;5030387;28;20025;-70
2024/01/09 04:55:23;;;;;;;32.70;14.23;;;64.30;2201.60;;;;;;5033567;28;20037;-62
2024/01/09 04:57:48;;;;;;;26.73;12.80;;;64.30;2201.60;;;;;;5033745;28;20520;-61
2024/01/09 05:00:19;;;;;;;32.38;13.07;;;64.30;2201.60;;;;;;5032856;28;20041;-63
2024/01/09 05:02:45;;;;;;;27.95;13.05;;;64.30;2201.60;;;;;;5030960;28;20076;-64
2024/01/09 05:05:11;;;;;;;29.48;12.02;;;64.30;2201.60;;;;;;5032497;28;20408;-66
2024/01/09 05:07:36;;;;;;;27.60;12.85;;;64.30;2201.60;;;;;;5031789;28;20029;-61
2024/01/09 05:10:04;;;;;;;27.80;13.05;;;64.30;2201.60;;;;;;5028705;28;20029;-62
2024/01/09 05:12:33;;;;;;;25.40;11.95;;;64.30;2201.60;;;;;;5033169;28;20025;-66
2024/01/09 05:14:58;;;;;;;28.63;13.70;;;64.30;2201.60;;;;;;5033647;28;20025;-63
2024/01/09 05:17:27;;;;;;;32.08;14.65;;;64.30;2201.60;;;;;;5033014;28;20026;-65
2024/01/09 05:19:53;;;;;;;41.22;17.75;;;64.20;2201.60;;;;;;5032749;28;20045;-66
2024/01/09 05:22:18;;;;;;;34.42;14.55;;;64.20;2201.60;;;;;;5032488;28;20060;-64
2024/01/09 05:24:47;;;;;;;34.53;14.05;;;64.30;2201.60;;;;;;5034343;28;20056;-62
2024/01/09 05:27:13;;;;;;;34.05;14.05;;;64.20;2201.60;;;;;;5026245;28;20025;-68
2024/01/09 05:29:38;;;;;;;29.02;13.00;;;64.30;2201.60;;;;;;5031845;28;20044;-67
2024/01/09 05:32:07;;;;;;;27.65;13.23;;;64.30;2201.60;;;;;;5033141;28;20396;-66
2024/01/09 05:34:33;;;;;;;34.80;14.27;;;64.30;2201.60;;;;;;5032583;28;20029;-63
2024/01/09 05:36:58;;;;;;;37.47;14.35;;;64.30;2201.60;;;;;;5032224;28;20034;-70
2024/01/09 05:39:24;;;;;;;28.25;12.98;;;64.30;2201.60;;;;;;5031903;28;20073;-63
2024/01/09 05:41:50;;;;;;;32.95;14.02;;;64.30;2201.60;;;;;;5032087;28;20164;-67
2024/01/09 05:44:15;;;;;;;38.47;16.30;;;64.30;2201.60;;;;;;5032324;28;20033;-70
2024/01/09 05:46:41;;;;;;;42.60;17.85;;;64.40;2201.60;;;;;;5030631;28;20040;-71
2024/01/09 05:49:07;;;;;;;43.83;17.48;;;64.30;2201.60;;;;;;5029709;28;20033;-69
2024/01/09 05:51:36;;;;;;;35.63;14.90;;;64.40;2201.60;;;;;;5030453;28;20025;-61
2024/01/09 05:54:02;;;;;;;33.45;14.25;;;64.40;2201.60;;;;;;5030255;28;20037;-66
2024/01/09 05:56:28;;;;;;;33.05;14.73;;;64.40;2201.60;;;;;;5031327;28;20029;-62
2024/01/09 05:58:54;;;;;;;29.50;13.27;;;64.40;2201.60;;;;;;5032380;28;20464;-65
2024/01/09 06:01:20;;;;;;;29.63;12.65;;;64.40;2201.60;;;;;;5037233;28;20037;-62
2024/01/09 06:07:11;;;;;;;27.30;12.60;;;64.40;2201.60;;;;;;5036927;28;20546;-71
2024/01/09 06:09:38;;;;;;;28.17;12.68;;;64.50;2201.60;;;;;;5036732;28;20339;-70
2024/01/09 06:12:04;;;;;;;26.92;12.82;;;64.50;2201.60;;;;;;5036666;28;20436;-73
2024/01/09 06:14:30;;;;;;;29.00;12.90;;;64.50;2201.60;;;;;;5036771;28;20475;-61
2024/01/09 06:16:56;;;;;;;30.85;13.80;;;64.50;2201.60;;;;;;5036666;28;20025;-72
2024/01/09 06:22:44;;;;;;;32.38;14.20;;;64.50;2048.00;;;;;;5036778;28;20051;-71
2024/01/09 06:25:13;;;;;;;30.20;14.00;;;64.50;2201.60;;;;;;5035871;28;20496;-63
2024/01/09 06:27:39;;;;;;;34.13;15.43;;;64.50;2201.60;;;;;;5035557;28;20460;-70
2024/01/09 06:30:06;;;;;;;33.80;15.07;;;64.40;2201.60;;;;;;5036035;28;20511;-61
2024/01/09 06:32:34;;;;;;;35.55;16.25;;;64.50;2201.60;;;;;;5035453;28;20503;-68
2024/01/09 06:38:22;;;;;;;34.15;13.70;;;64.50;2201.60;;;;;;5035474;28;20044;-73
2024/01/09 06:40:48;;;;;;;29.10;13.73;;;64.40;2201.60;;;;;;5035470;28;20017;-63
2024/01/09 06:43:14;;;;;;;32.17;14.60;;;64.40;2201.60;;;;;;5035401;28;20109;-70
2024/01/09 06:45:40;;;;;;;35.78;15.60;;;64.40;2201.60;;;;;;5035762;28;20499;-69
2024/01/09 06:48:06;;;;;;;31.52;14.10;;;64.40;2201.60;;;;;;5035483;28;20475;-63
2024/01/09 06:53:54;;;;;;;35.80;14.50;;;64.40;2201.60;;;;;;5035309;28;20033;-64
2024/01/09 06:56:20;;;;;;;38.92;17.35;;;64.30;2201.60;;;;;;5035338;28;20526;-70
2024/01/09 06:58:46;;;;;;;31.90;14.77;;;64.30;2201.60;;;;;;5034980;28;20014;-68
2024/01/09 07:01:12;;;;;;;28.95;13.43;;;64.30;2201.60;;;;;;5035713;28;20017;-70
2024/01/09 07:03:39;;;;;;;29.92;13.07;;;64.30;2201.60;;;;;;5035526;28;20041;-71
2024/01/09 07:06:08;;;;;;;35.05;15.48;;;64.30;2201.60;;;;;;5034940;28;20470;-69
2024/01/09 07:08:37;;;;;;;31.60;12.75;;;64.20;2201.60;;;;;;5035403;28;20516;-61
2024/01/09 07:11:03;;;;;;;30.23;13.25;;;64.20;2201.60;;;;;;5034845;28;20513;-60
2024/01/09 07:13:28;;;;;;;28.77;13.25;;;64.10;2201.60;;;;;;5034972;28;20116;-66
2024/01/09 07:15:54;;;;;;;28.80;13.65;;;64.20;2201.60;;;;;;5035274;28;20022;-62
2024/01/09 07:18:24;;;;;;;30.92;13.98;;;64.10;2201.60;;;;;;5034304;28;20474;-63
2024/01/09 07:24:12;;;;;;;31.30;13.80;;;64.00;2201.60;;;;;;4953452;28;2347118;-63
2024/01/09 07:26:42;;;;;;;29.15;12.77;;;64.10;2201.60;;;;;;5037468;28;20029;-63
2024/01/09 07:29:10;;;;;;;27.63;13.35;;;64.00;2201.60;;;;;;5036501;28;20475;-61
2024/01/09 07:31:36;;;;;;;31.60;14.32;;;64.00;2201.60;;;;;;5036242;28;20448;-63
2024/01/09 07:34:05;;;;;;;24.98;11.88;;;64.00;2201.60;;;;;;5035852;28;20457;-65
2024/01/09 07:36:31;;;;;;;24.92;10.98;;;64.00;2201.60;;;;;;5035371;28;20493;-62
2024/01/09 07:38:57;;;;;;;28.10;13.27;;;64.00;2201.60;;;;;;5035789;28;20033;-61
2024/01/09 07:41:25;;;;;;;29.85;13.60;;;64.00;2201.60;;;;;;5035532;28;20452;-66
2024/01/09 07:43:54;;;;;;;26.25;11.75;;;39.30;2201.60;;;;;;5035628;28;20474;-62
2024/01/09 07:46:20;;;;;;;24.83;11.85;;;39.30;2201.60;;;;;;5035663;28;20089;-67
2024/01/09 07:48:46;;;;;;;23.20;10.90;;;39.30;2201.60;;;;;;5035537;28;20045;-67
2024/01/09 07:51:12;;;;;;;24.60;11.43;;;39.30;2201.60;;;;;;5035833;28;20453;-63
2024/01/09 07:53:39;;;;;;;21.65;10.45;;;39.20;2201.60;;;;;;5035366;28;20536;-65
2024/01/09 07:56:14;;;;;;;23.65;10.75;;;39.30;2201.60;;;;;;5036604;28;20487;-67
2024/01/09 07:58:40;;;;;;;75.00;25.92;;;39.10;2201.60;;;;;;5035136;28;20484;-62
2024/01/09 08:01:11;;;;;;;168.93;48.80;;;64.00;2201.60;;;;;;5035175;28;20484;-62
2024/01/09 08:03:38;;;;;;;155.65;45.63;;;39.30;2201.60;;;;;;5036357;28;20483;-62
2024/01/09 08:09:26;;;;;;;105.93;30.95;;;39.20;2201.60;;;;;;5039385;28;20053;-63
2024/01/09 08:11:53;;;;;;;94.05;28.13;;;39.20;2201.60;;;;;;5038886;28;20017;-62
2024/01/09 08:14:19;;;;;;;106.13;33.17;;;39.20;2201.60;;;;;;5038818;28;20522;-65
2024/01/09 08:16:46;;;;;;;68.95;25.42;;;39.00;2201.60;;;;;;5039626;28;20449;-61
2024/01/09 08:19:12;;;;;;;86.13;32.85;;;39.20;2201.60;;;;;;5039052;28;20470;-64
2024/01/09 08:21:39;;;;;;;60.97;26.77;;;39.20;2201.60;;;;;;5038823;28;20037;-66
2024/01/09 08:24:06;;;;;;;84.15;29.85;;;39.20;2201.60;;;;;;5038693;28;20040;-64
2024/01/09 08:26:32;;;;;;;85.78;31.38;;;39.20;2201.60;;;;;;5038680;28;20456;-66
2024/01/09 08:29:02;;;;;;;92.50;38.33;;;39.00;2201.60;;;;;;5039238;28;20079;-63
2024/01/09 08:31:29;;;;;;;51.95;24.38;;;39.10;2201.60;;;;;;5038573;28;20482;-63
2024/01/09 08:33:55;;;;;;;59.42;29.30;;;39.10;2201.60;;;;;;5038735;28;20108;-61
2024/01/09 08:39:43;;;;;;;27.90;13.88;;;39.00;2201.60;;;;;;5038479;28;20503;-64
2024/01/09 08:42:09;;;;;;;39.00;17.55;;;39.00;2201.60;;;;;;5038773;28;20452;-64
2024/01/09 08:44:35;;;;;;;28.95;13.93;;;39.00;2201.60;;;;;;5038279;28;20465;-61
2024/01/09 08:47:01;;;;;;;28.65;14.40;;;39.00;2201.60;;;;;;5038476;28;20356;-62
2024/01/09 08:49:31;;;;;;;25.23;11.98;;;39.00;2201.60;;;;;;5038350;28;20033;-62
2024/01/09 08:51:57;;;;;;;25.35;11.55;;;39.10;2201.60;;;;;;5038407;28;20538;-62
2024/01/09 08:54:22;;;;;;;25.50;12.07;;;39.00;2201.60;;;;;;5038151;28;20460;-67
2024/01/09 08:56:50;;;;;;;28.63;13.25;;;39.00;2201.60;;;;;;5038665;28;20013;-64
2024/01/09 08:59:15;;;;;;;25.38;12.15;;;39.00;2201.60;;;;;;5038019;28;20034;-61
2024/01/09 09:01:44;;;;;;;34.78;16.50;;;39.00;2201.60;;;;;;5038209;28;20029;-63
2024/01/09 09:04:10;;;;;;;26.88;11.18;;;38.90;2201.60;;;;;;5037974;28;20483;-62
2024/01/09 09:09:58;;;;;;;28.00;14.00;;;39.00;2201.60;;;;;;5038430;28;20068;-62
2024/01/09 09:12:25;;;;;;;32.28;15.40;;;38.80;2201.60;;;;;;5037932;28;20470;-62
2024/01/09 09:14:51;;;;;;;31.95;14.55;;;38.70;2201.60;;;;;;5037689;28;20474;-63
2024/01/09 09:17:18;;;;;;;46.92;19.83;;;38.70;2201.60;;;;;;5037689;28;20022;-62
2024/01/09 09:19:44;;;;;;;29.73;13.57;;;38.70;2201.60;;;;;;5037252;28;20527;-64
2024/01/09 09:22:12;;;;;;;20.35;10.45;;;38.80;2201.60;;;;;;5004930;28;20030;-70
2024/01/09 09:24:39;;;;;;;25.10;11.77;;;38.90;2201.60;;;;;;5037091;28;20480;-71
2024/01/09 09:27:05;;;;;;;28.02;12.77;;;38.90;2201.60;;;;;;5037254;28;20033;-72
2024/01/09 09:29:32;;;;;;;25.35;11.55;;;38.80;2201.60;;;;;;5037589;28;20089;-66
2024/01/09 09:31:58;;;;;;;28.45;12.43;;;38.80;2201.60;;;;;;5037748;28;20461;-65
2024/01/09 09:34:24;;;;;;;29.23;13.85;;;38.70;2201.60;;;;;;5037450;28;20371;-64
2024/01/09 09:40:12;;;;;;;45.92;19.40;;;38.60;2201.60;;;;;;5037544;28;20087;-63
2024/01/09 09:42:40;;;;;;;36.13;16.15;;;38.70;2201.60;;;;;;5036962;28;20357;-66
2024/01/09 09:45:13;;;;;;;53.78;24.25;;;38.70;2201.60;;;;;;5037551;28;20073;-68
2024/01/09 09:47:40;;;;;;;63.50;27.45;;;38.70;2201.60;;;;;;5019544;28;20022;-63
2024/01/09 09:50:10;;;;;;;116.05;52.13;;;38.70;2201.60;;;;;;5037536;28;20018;-68
2024/01/09 09:52:40;;;;;;;172.07;68.95;;;38.60;2201.60;;;;;;5037222;28;20479;-62
2024/01/09 09:55:08;;;;;;;64.43;30.08;;;38.60;2201.60;;;;;;5037221;28;20028;-62
2024/01/09 09:57:35;;;;;;;195.85;73.10;;;38.60;2201.60;;;;;;5036957;28;20475;-64
2024/01/09 10:00:04;;;;;;;150.63;57.97;;;38.60;2201.60;;;;;;5036905;28;20510;-65
2024/01/09 10:02:33;;;;;;;108.35;43.58;;;38.50;2201.60;;;;;;5019246;28;20086;-62
2024/01/09 10:05:10;;;;;;;41.60;19.80;;;38.50;2201.60;;;;;;5037082;28;20516;-75
2024/01/09 10:07:39;;;;;;;47.65;22.95;;;38.50;2201.60;;;;;;5037616;28;20449;-63
2024/01/09 10:10:08;;;;;;;56.72;25.55;;;38.50;2201.60;;;;;;5019155;28;20456;-65
2024/01/09 10:12:34;;;;;;;53.63;24.80;;;38.40;2201.60;;;;;;5037046;28;20432;-62
2024/01/09 10:15:11;;;;;;;61.10;28.17;;;38.40;2201.60;;;;;;5036648;28;20487;-61
2024/01/09 10:17:39;;;;;;;49.65;24.60;;;13.70;2201.60;;;;;;5037262;28;20484;-65
2024/01/09 10:20:08;;;;;;;34.33;16.33;;;13.70;2201.60;;;;;;5036592;28;20510;-61
2024/01/09 10:22:38;;;;;;;31.02;14.65;;;13.70;2201.60;;;;;;5019135;28;20429;-63
2024/01/09 10:25:05;;;;;;;43.22;19.90;;;13.70;2201.60;;;;;;5036510;28;20567;-62
2024/01/09 10:27:35;;;;;;;36.17;18.77;;;13.70;2201.60;;;;;;5017905;28;20396;-65
2024/01/09 10:30:01;;;;;;;53.45;23.92;;;13.70;2201.60;;;;;;5036477;28;20523;-61
2024/01/09 10:32:27;;;;;;;33.40;18.50;;;13.70;2201.60;;;;;;5036676;28;20523;-64
2024/01/09 10:34:53;;;;;;;27.50;11.95;;;13.70;2201.60;;;;;;5036795;28;20045;-73
2024/01/09 10:41:21;;;;;;;36.65;17.33;;;38.40;2201.60;;;;;;5036487;28;20448;-73
2024/01/09 10:43:50;;;;;;;50.28;22.67;;;13.70;2201.60;;;;;;5036176;28;20491;-73
2024/01/09 10:46:17;;;;;;;42.33;19.98;;;13.70;2201.60;;;;;;5036283;28;20519;-63
2024/01/09 10:48:48;;;;;;;36.67;16.48;;;13.50;2201.60;;;;;;5035465;28;20360;-63
2024/01/09 10:51:16;;;;;;;42.58;21.65;;;13.60;2201.60;;;;;;5036147;28;20543;-61
2024/01/09 10:53:45;;;;;;;37.85;18.65;;;13.50;2201.60;;;;;;5036100;28;20456;-64
2024/01/09 10:56:18;;;;;;;41.10;16.55;;;13.50;2201.60;;;;;;5036389;28;20486;-68
2024/01/09 10:58:49;;;;;;;56.95;23.50;;;13.50;2201.60;;;;;;5036311;28;20368;-61
2024/01/09 11:01:16;;;;;;;38.20;16.80;;;13.50;2201.60;;;;;;5035988;28;20544;-62
2024/01/09 11:03:45;;;;;;;33.53;14.90;;;13.50;2201.60;;;;;;5036296;28;20526;-61
2024/01/09 11:06:16;;;;;;;52.90;21.65;;;13.40;2201.60;;;;;;5036299;28;20419;-71
2024/01/09 11:08:49;;;;;;;46.42;19.13;;;13.40;2201.60;;;;;;5036262;28;20514;-67
2024/01/09 11:11:18;;;;;;;47.88;20.20;;;13.50;2201.60;;;;;;5035887;28;20017;-63
2024/01/09 11:13:48;;;;;;;61.40;29.10;;;13.50;2201.60;;;;;;5035786;28;20487;-62
2024/01/09 11:16:17;;;;;;;48.53;22.70;;;13.40;2201.60;;;;;;5036268;28;20021;-62
2024/01/09 11:18:46;;;;;;;34.42;17.30;;;13.40;2201.60;;;;;;5035912;28;20436;-62
2024/01/09 11:21:12;;;;;;;33.05;16.45;;;13.40;2201.60;;;;;;5035484;28;20550;-63
2024/01/09 11:23:51;;;;;;;27.58;13.57;;;13.40;2201.60;;;;;;5035679;28;20483;-62
2024/01/09 11:26:18;;;;;;;30.38;14.88;;;13.40;2201.60;;;;;;5036255;28;20468;-63
2024/01/09 11:28:48;;;;;;;32.97;15.32;;;13.50;2201.60;;;;;;5035861;28;20502;-61
2024/01/09 11:31:20;;;;;;;33.47;14.80;;;13.40;2201.60;;;;;;5035472;28;20460;-62
2024/01/09 11:33:48;;;;;;;29.08;13.07;;;13.30;2201.60;;;;;;5018425;28;20476;-62
2024/01/09 11:36:27;;;;;;;29.95;14.60;;;13.10;2201.60;;;;;;5035532;28;20501;-62
2024/01/09 11:38:55;;;;;;;58.17;23.90;;;13.10;2201.60;;;;;;5034955;28;20021;-64
2024/01/09 11:41:31;;;;;;;72.15;28.58;;;13.10;2201.60;;;;;;5035678;28;20412;-62
2024/01/09 11:44:01;;;;;;;94.53;31.48;;;13.00;2201.60;;;;;;5035350;28;20476;-64
2024/01/09 11:46:29;;;;;;;42.03;17.50;;;13.20;2201.60;;;;;;5034279;28;20460;-63
2024/01/09 11:48:56;;;;;;;31.20;15.07;;;13.20;2201.60;;;;;;5035556;28;20368;-63
2024/01/09 11:51:23;;;;;;;37.95;15.82;;;13.20;2201.60;;;;;;5035778;28;20464;-64
2024/01/09 11:53:50;;;;;;;72.13;26.83;;;13.20;2201.60;;;;;;5035369;28;20025;-63
2024/01/09 11:56:17;;;;;;;61.53;22.35;;;13.20;2201.60;;;;;;5035618;28;20045;-63
2024/01/09 11:58:50;;;;;;;64.70;24.85;;;13.20;2201.60;;;;;;5016472;28;20034;-61
2024/01/09 12:01:18;;;;;;;118.15;37.83;;;13.20;2201.60;;;;;;5035166;28;20487;-61
2024/01/09 12:03:53;;;;;;;102.13;33.83;;;13.10;2201.60;;;;;;5035345;28;20453;-62
2024/01/09 12:06:20;;;;;;;;;;;13.10;2201.60;;;;;;5036290;28;20516;-64
2024/01/09 12:08:46;;;;;;;39.95;18.83;;;13.00;2201.60;;;;;;5035291;28;20336;-61
2024/01/09 12:11:12;;;;;;;36.38;17.90;;;13.00;2201.60;;;;;;5035078;28;20333;-66
2024/01/09 12:13:38;;;;;;;35.15;16.52;;;12.90;2201.60;;;;;;5035501;28;20512;-62
2024/01/09 12:16:24;;;;;;;35.58;17.98;;;12.90;2201.60;;;;;;5035130;28;20480;-61
2024/01/09 12:18:57;;;;;;;39.47;19.00;;;12.90;2201.60;;;;;;5035485;28;20472;-62
2024/01/09 12:21:26;;;;;;;49.78;22.38;;;12.90;2201.60;;;;;;5017935;28;20524;-64
2024/01/09 12:23:55;;;;;;;47.08;20.48;;;12.90;2201.60;;;;;;5034862;28;20510;-62
2024/01/09 12:26:22;;;;;;;32.80;17.30;;;12.90;2201.60;;;;;;5035247;28;20456;-63
2024/01/09 12:28:49;;;;;;;29.40;15.15;;;12.90;2201.60;;;;;;5035393;28;20491;-62
2024/01/09 12:31:22;;;;;;;38.95;17.30;;;12.90;2201.60;;;;;;5017201;28;20377;-69
2024/01/09 12:33:49;;;;;;;29.55;14.95;;;0.40;2201.60;;;;;;5036258;28;20082;-61
2024/01/09 12:36:16;;;;;;;49.28;21.70;;;13.00;2201.60;;;;;;5035034;28;20460;-63
2024/01/09 12:38:43;;;;;;;41.00;17.67;;;13.00;2201.60;;;;;;5027691;28;20033;-69
2024/01/09 12:41:09;;;;;;;37.22;16.58;;;13.00;2201.60;;;;;;5006689;28;20041;-64
2024/01/09 12:43:38;;;;;;;28.73;13.88;;;13.00;2201.60;;;;;;5032461;28;20048;-66
2024/01/09 12:46:04;;;;;;;26.58;13.57;;;13.10;2201.60;;;;;;5032413;28;20030;-61
2024/01/09 12:48:31;;;;;;;30.17;14.38;;;13.10;2201.60;;;;;;5038667;28;20030;-64
2024/01/09 12:51:05;;;;;;;33.75;18.00;;;13.00;2201.60;;;;;;5021118;28;20030;-62
2024/01/09 12:53:32;;;;;;;29.42;15.38;;;13.10;2201.60;;;;;;5046495;28;20053;-64
2024/01/09 12:56:13;;;;;;;25.63;12.70;;;13.10;2201.60;;;;;;5046755;28;20172;-61
2024/01/09 12:58:45;;;;;;;29.95;14.82;;;13.00;2201.60;;;;;;5048604;28;20056;-63
2024/01/09 13:01:15;;;;;;;27.73;12.70;;;12.90;2201.60;;;;;;5024122;28;20061;-61
2024/01/09 13:03:45;;;;;;;27.13;14.38;;;13.00;2201.60;;;;;;5016706;28;20029;-62